Time;durP1;ratioP1;P1;durP2;ratioP2;P2;SDS_P1;SDS_P2;PMS_P1;PMS_P2;Temp;Humidity;BMP_temperature;BMP_pressure;BME280_temperature;BME280_humidity;BME280_pressure;Samples;Min_cycle;Max_cycle;Signal;HPM_P1;HPM_P2
2021/10/15 00:01:30;;;;;;;3.83;1.38;;;10.70;99.90;;;;;;5004981;28;20042;-65
2021/10/15 00:03:57;;;;;;;5.63;1.33;;;10.70;99.90;;;;;;5007328;28;20097;-65
2021/10/15 00:06:24;;;;;;;3.45;1.48;;;10.60;99.90;;;;;;5002025;28;20061;-69
2021/10/15 00:08:51;;;;;;;2.80;0.95;;;10.70;99.90;;;;;;4995911;28;20376;-69
2021/10/15 00:11:18;;;;;;;4.00;0.55;;;10.70;99.90;;;;;;5002914;28;20099;-65
2021/10/15 00:13:45;;;;;;;5.28;1.30;;;10.70;99.90;;;;;;5006602;28;20136;-67
2021/10/15 00:16:12;;;;;;;2.38;1.02;;;10.60;99.90;;;;;;5002725;28;20042;-65
2021/10/15 00:18:39;;;;;;;1.10;0.77;;;10.70;99.90;;;;;;5006768;28;20049;-65
2021/10/15 00:21:06;;;;;;;3.67;1.30;;;10.70;99.90;;;;;;5006259;28;20573;-66
2021/10/15 00:23:33;;;;;;;1.50;0.95;;;10.70;99.90;;;;;;5006649;28;20088;-68
2021/10/15 00:26:00;;;;;;;3.88;1.30;;;10.70;99.90;;;;;;5006421;28;20752;-68
2021/10/15 00:28:27;;;;;;;4.30;1.17;;;10.70;99.90;;;;;;5002640;28;20136;-70
2021/10/15 00:30:57;;;;;;;5.78;1.17;;;10.70;99.90;;;;;;5003856;28;20137;-70
2021/10/15 00:33:24;;;;;;;3.35;0.95;;;10.70;99.90;;;;;;5004013;28;20037;-65
2021/10/15 00:35:54;;;;;;;2.13;1.50;;;10.70;99.90;;;;;;4991369;28;20353;-67
2021/10/15 00:38:21;;;;;;;7.38;1.17;;;10.70;99.90;;;;;;5000793;28;20049;-65
2021/10/15 00:40:48;;;;;;;3.17;0.90;;;10.70;99.90;;;;;;5002590;28;20077;-67
2021/10/15 00:43:15;;;;;;;3.22;1.38;;;10.70;99.90;;;;;;5005605;28;20045;-66
2021/10/15 00:45:43;;;;;;;2.45;1.13;;;10.70;99.90;;;;;;5002774;28;20502;-68
2021/10/15 00:48:10;;;;;;;1.42;0.85;;;10.60;99.90;;;;;;5004470;28;20123;-66
2021/10/15 00:50:41;;;;;;;2.78;1.35;;;10.70;99.90;;;;;;5003947;28;20045;-66
2021/10/15 00:53:07;;;;;;;1.10;0.73;;;10.70;99.90;;;;;;5006392;28;20049;-70
2021/10/15 00:55:34;;;;;;;2.28;1.60;;;10.60;99.90;;;;;;5002796;28;20527;-65
2021/10/15 00:58:02;;;;;;;5.57;1.33;;;10.60;99.90;;;;;;5003709;28;20054;-66
2021/10/15 01:00:29;;;;;;;3.58;0.90;;;10.60;99.90;;;;;;5005144;28;20391;-66
2021/10/15 01:02:57;;;;;;;3.92;1.17;;;10.60;99.90;;;;;;5007495;28;20042;-66
2021/10/15 01:05:25;;;;;;;4.57;0.90;;;10.60;99.90;;;;;;5009184;28;20297;-65
2021/10/15 01:07:53;;;;;;;1.65;1.15;;;10.60;99.90;;;;;;5007348;28;20069;-66
2021/10/15 01:10:20;;;;;;;1.10;0.65;;;10.60;99.90;;;;;;5007468;28;20792;-71
2021/10/15 01:12:47;;;;;;;4.05;1.08;;;10.60;99.90;;;;;;5009679;28;20132;-72
2021/10/15 01:15:14;;;;;;;2.55;1.38;;;10.60;99.90;;;;;;5005949;28;20080;-72
2021/10/15 01:17:41;;;;;;;3.88;0.70;;;10.60;99.90;;;;;;5008993;28;20104;-65
2021/10/15 01:20:09;;;;;;;2.90;1.02;;;10.60;99.90;;;;;;5009233;28;20042;-66
2021/10/15 01:22:36;;;;;;;1.52;1.20;;;10.60;99.90;;;;;;5006645;28;20088;-66
2021/10/15 01:25:03;;;;;;;3.80;0.82;;;10.60;99.90;;;;;;5008525;28;20128;-66
2021/10/15 01:27:30;;;;;;;3.22;1.05;;;10.60;99.90;;;;;;5006085;28;20104;-67
2021/10/15 01:29:57;;;;;;;0.90;0.60;;;10.60;99.90;;;;;;5008704;28;20470;-66
2021/10/15 01:32:24;;;;;;;1.40;0.98;;;10.60;99.90;;;;;;5004693;28;20046;-68
2021/10/15 01:34:51;;;;;;;1.80;0.70;;;10.60;99.90;;;;;;5008773;28;20041;-66
2021/10/15 01:37:18;;;;;;;3.85;1.13;;;10.60;99.90;;;;;;5009230;28;20046;-65
2021/10/15 01:39:45;;;;;;;1.23;0.82;;;10.50;99.90;;;;;;5007415;28;20045;-65
2021/10/15 01:44:57;;;;;;;1.48;0.95;;;10.50;99.90;;;;;;5006977;28;20135;-66
2021/10/15 01:47:24;;;;;;;1.45;1.15;;;10.50;99.90;;;;;;5004692;28;20132;-68
2021/10/15 01:49:51;;;;;;;2.05;0.80;;;10.50;99.90;;;;;;5008560;28;20091;-66
2021/10/15 01:52:19;;;;;;;2.58;0.63;;;10.50;99.90;;;;;;5002457;28;20137;-67
2021/10/15 01:54:46;;;;;;;1.08;0.57;;;10.50;99.90;;;;;;5006988;28;20058;-68
2021/10/15 01:57:16;;;;;;;3.45;0.82;;;10.50;99.90;;;;;;5007014;28;20376;-68
2021/10/15 01:59:43;;;;;;;4.63;0.57;;;10.40;99.90;;;;;;5005839;28;20112;-67
2021/10/15 02:02:10;;;;;;;2.95;1.05;;;10.40;99.90;;;;;;4988869;28;20073;-69
2021/10/15 02:04:37;;;;;;;2.55;0.77;;;10.40;99.90;;;;;;5005187;28;20370;-66
2021/10/15 02:07:03;;;;;;;2.78;1.10;;;10.50;99.90;;;;;;5007795;28;20061;-71
2021/10/15 02:09:30;;;;;;;1.38;0.85;;;10.50;99.90;;;;;;5007149;28;20061;-73
2021/10/15 02:11:59;;;;;;;4.22;0.95;;;10.50;99.90;;;;;;4998591;28;20767;-68
2021/10/15 02:14:26;;;;;;;2.92;1.05;;;10.50;99.90;;;;;;4999406;28;20081;-67
2021/10/15 02:16:53;;;;;;;1.95;0.60;;;10.50;99.90;;;;;;5002490;28;20080;-69
2021/10/15 02:19:19;;;;;;;2.00;0.93;;;10.50;99.90;;;;;;5004939;28;20780;-65
2021/10/15 02:21:46;;;;;;;4.07;1.73;;;10.50;99.90;;;;;;5023735;28;20140;-65
2021/10/15 02:24:13;;;;;;;3.75;1.77;;;10.50;99.90;;;;;;5005535;28;20060;-69
2021/10/15 02:26:40;;;;;;;7.10;1.15;;;10.50;99.90;;;;;;5006471;28;20065;-70
2021/10/15 02:29:07;;;;;;;1.42;0.60;;;10.60;99.90;;;;;;5005611;28;20195;-66
2021/10/15 02:31:34;;;;;;;3.47;0.98;;;10.60;99.90;;;;;;5001461;28;20077;-69
2021/10/15 02:34:01;;;;;;;5.25;0.60;;;10.60;99.90;;;;;;4999376;28;20068;-67
2021/10/15 02:36:28;;;;;;;2.38;0.85;;;10.60;99.90;;;;;;5002263;28;20116;-70
2021/10/15 02:38:55;;;;;;;5.18;0.80;;;10.60;99.90;;;;;;4991903;28;20092;-65
2021/10/15 02:41:22;;;;;;;3.50;1.27;;;10.70;99.90;;;;;;5003353;28;20046;-75
2021/10/15 02:43:52;;;;;;;2.65;1.17;;;10.70;99.90;;;;;;4997058;28;20117;-65
2021/10/15 02:46:19;;;;;;;3.40;1.25;;;10.70;99.90;;;;;;4999143;28;20108;-70
2021/10/15 02:48:46;;;;;;;6.78;1.80;;;10.70;99.90;;;;;;5004667;28;20048;-67
2021/10/15 02:51:13;;;;;;;3.85;1.40;;;10.70;99.90;;;;;;4999312;28;20105;-67
2021/10/15 02:53:40;;;;;;;2.53;1.55;;;10.70;99.90;;;;;;5005771;28;20148;-65
2021/10/15 02:56:08;;;;;;;1.25;1.08;;;10.70;99.90;;;;;;5002635;28;20112;-70
2021/10/15 02:58:34;;;;;;;5.70;2.40;;;10.70;99.90;;;;;;4995851;28;20066;-66
2021/10/15 03:01:01;;;;;;;3.97;1.45;;;10.60;99.90;;;;;;5003659;28;20077;-71
2021/10/15 03:03:28;;;;;;;4.25;1.70;;;10.60;99.90;;;;;;5006376;28;20075;-65
2021/10/15 03:05:55;;;;;;;3.85;1.88;;;10.60;99.90;;;;;;5003550;28;20068;-65
2021/10/15 03:08:22;;;;;;;3.85;1.80;;;10.60;99.90;;;;;;5004703;28;20087;-70
2021/10/15 03:10:49;;;;;;;4.93;1.17;;;10.60;99.90;;;;;;5004239;28;20073;-66
2021/10/15 03:13:17;;;;;;;8.63;1.50;;;10.60;99.90;;;;;;5005522;28;20468;-65
2021/10/15 03:15:43;;;;;;;3.03;2.15;;;10.60;99.90;;;;;;5006317;28;20046;-68
2021/10/15 03:18:11;;;;;;;3.67;2.05;;;10.60;99.90;;;;;;5005760;28;20050;-67
2021/10/15 03:20:39;;;;;;;2.55;1.50;;;10.60;99.90;;;;;;5005750;28;20054;-68
2021/10/15 03:23:06;;;;;;;4.65;1.73;;;10.60;99.90;;;;;;5003780;28;20037;-68
2021/10/15 03:25:33;;;;;;;3.58;1.50;;;10.60;99.90;;;;;;4997673;28;20092;-66
2021/10/15 03:28:00;;;;;;;3.00;1.50;;;10.60;99.90;;;;;;5005383;28;20045;-65
2021/10/15 03:30:27;;;;;;;2.72;2.35;;;10.70;99.90;;;;;;5004538;28;20147;-70
2021/10/15 03:32:54;;;;;;;2.20;1.40;;;10.60;99.90;;;;;;5006175;28;20048;-66
2021/10/15 03:35:21;;;;;;;2.17;1.73;;;10.70;99.90;;;;;;5007916;28;20037;-66
2021/10/15 03:37:48;;;;;;;3.85;2.30;;;10.70;99.90;;;;;;5002259;28;20538;-70
2021/10/15 03:40:15;;;;;;;2.10;1.90;;;10.70;99.90;;;;;;5005373;28;20073;-69
2021/10/15 03:42:42;;;;;;;4.53;2.40;;;10.70;99.90;;;;;;5004066;28;20074;-66
2021/10/15 03:45:10;;;;;;;4.32;2.47;;;10.70;99.90;;;;;;5004875;28;20321;-65
2021/10/15 03:47:37;;;;;;;5.30;1.67;;;10.70;99.90;;;;;;5003120;28;20045;-66
2021/10/15 03:50:06;;;;;;;4.82;2.05;;;10.70;99.90;;;;;;5007056;28;20061;-65
2021/10/15 03:52:34;;;;;;;3.95;2.50;;;10.80;99.90;;;;;;5011429;28;20091;-65
2021/10/15 03:55:01;;;;;;;8.45;2.97;;;10.80;99.90;;;;;;4994943;28;20117;-67
2021/10/15 03:57:29;;;;;;;12.13;3.97;;;10.80;99.90;;;;;;5005369;28;20049;-70
2021/10/15 03:59:56;;;;;;;4.80;3.08;;;10.80;99.90;;;;;;5003933;28;20041;-67
2021/10/15 04:02:23;;;;;;;5.72;3.03;;;10.80;99.90;;;;;;5003552;28;20137;-68
2021/10/15 04:04:51;;;;;;;9.00;3.10;;;10.90;99.90;;;;;;5004185;28;20426;-65
2021/10/15 04:07:17;;;;;;;7.35;2.83;;;10.90;99.90;;;;;;5005570;28;21406;-69
2021/10/15 04:09:44;;;;;;;16.33;4.38;;;10.90;99.90;;;;;;5005418;28;20135;-65
2021/10/15 04:12:11;;;;;;;8.25;3.40;;;10.90;99.90;;;;;;5002293;28;20421;-67
2021/10/15 04:14:38;;;;;;;8.57;4.10;;;10.90;99.90;;;;;;5004776;28;20151;-67
2021/10/15 04:17:05;;;;;;;12.25;3.40;;;10.90;99.90;;;;;;5000566;28;20038;-67
2021/10/15 04:19:32;;;;;;;5.03;3.53;;;10.90;99.90;;;;;;5005650;28;20046;-68
2021/10/15 04:21:59;;;;;;;6.40;3.70;;;11.00;99.90;;;;;;5003638;28;20451;-68
2021/10/15 04:24:26;;;;;;;4.45;3.25;;;11.00;99.90;;;;;;4996794;28;20637;-67
2021/10/15 04:26:53;;;;;;;5.40;3.00;;;11.00;99.90;;;;;;5002076;28;20121;-67
2021/10/15 04:29:20;;;;;;;4.13;2.47;;;11.00;99.90;;;;;;5001898;28;20108;-70
2021/10/15 04:31:46;;;;;;;6.38;3.30;;;11.00;99.90;;;;;;5002770;28;20085;-66
2021/10/15 04:34:13;;;;;;;7.10;3.10;;;11.00;99.90;;;;;;5001891;28;20148;-69
2021/10/15 04:36:41;;;;;;;5.75;3.03;;;11.10;99.90;;;;;;5005426;28;20103;-66
2021/10/15 04:39:08;;;;;;;5.18;2.45;;;11.10;99.90;;;;;;4997561;28;20383;-66
2021/10/15 04:41:34;;;;;;;7.28;4.63;;;11.10;99.90;;;;;;5004978;28;20425;-67
2021/10/15 04:44:01;;;;;;;3.92;2.15;;;11.10;99.90;;;;;;5001682;28;20573;-66
2021/10/15 04:46:28;;;;;;;4.90;2.08;;;11.10;99.90;;;;;;5000859;28;20080;-70
2021/10/15 04:48:55;;;;;;;5.78;2.90;;;11.10;99.90;;;;;;4999999;28;20046;-66
2021/10/15 04:51:22;;;;;;;7.70;3.70;;;11.10;99.90;;;;;;4998851;28;20133;-67
2021/10/15 04:53:49;;;;;;;8.18;2.65;;;11.10;99.90;;;;;;5007864;28;20072;-66
2021/10/15 04:56:16;;;;;;;9.73;3.40;;;11.10;99.90;;;;;;5001968;28;20093;-71
2021/10/15 04:58:45;;;;;;;9.70;3.40;;;11.20;99.90;;;;;;5005249;28;20152;-66
2021/10/15 05:01:11;;;;;;;14.27;4.30;;;11.20;99.90;;;;;;5002882;28;20123;-65
2021/10/15 05:03:38;;;;;;;7.03;3.25;;;11.20;99.90;;;;;;5005276;28;20145;-65
2021/10/15 05:06:08;;;;;;;8.20;3.83;;;11.20;99.90;;;;;;5000454;28;20050;-65
2021/10/15 05:11:31;;;;;;;7.32;4.47;;;11.20;99.90;;;;;;4974204;28;20041;-66
2021/10/15 05:13:58;;;;;;;12.98;4.78;;;11.20;99.90;;;;;;5003540;28;20160;-66
2021/10/15 05:16:25;;;;;;;7.57;6.18;;;11.20;99.90;;;;;;4997549;28;20034;-70
2021/10/15 05:18:52;;;;;;;8.40;3.97;;;11.20;99.90;;;;;;5003919;28;20391;-69
2021/10/15 05:21:19;;;;;;;9.55;4.03;;;11.20;99.90;;;;;;5003462;28;20041;-66
2021/10/15 05:23:46;;;;;;;9.93;4.03;;;11.20;99.90;;;;;;5002898;28;20076;-73
2021/10/15 05:26:12;;;;;;;9.98;4.90;;;11.30;99.90;;;;;;5002024;28;20042;-65
2021/10/15 05:28:39;;;;;;;8.93;3.65;;;11.30;99.90;;;;;;5004635;28;20540;-66
2021/10/15 05:31:06;;;;;;;6.15;4.15;;;11.30;99.90;;;;;;5005446;28;20065;-73
2021/10/15 05:33:33;;;;;;;10.05;4.07;;;11.30;99.90;;;;;;5005146;28;20708;-69
2021/10/15 05:36:00;;;;;;;7.60;3.58;;;11.30;99.90;;;;;;5005179;28;20057;-67
2021/10/15 05:38:27;;;;;;;11.13;4.82;;;11.30;99.90;;;;;;5004414;28;20128;-67
2021/10/15 05:40:54;;;;;;;7.22;5.18;;;11.30;99.90;;;;;;5005045;28;20045;-70
2021/10/15 05:43:21;;;;;;;8.15;3.58;;;11.40;99.90;;;;;;5001760;28;20072;-67
2021/10/15 05:45:48;;;;;;;9.68;4.78;;;11.30;99.90;;;;;;5002640;28;20038;-67
2021/10/15 05:48:15;;;;;;;5.82;3.97;;;11.40;99.90;;;;;;5001596;28;20053;-69
2021/10/15 05:50:43;;;;;;;10.13;4.35;;;11.40;99.90;;;;;;5007336;28;20153;-66
2021/10/15 05:53:13;;;;;;;7.15;2.90;;;11.40;99.90;;;;;;5006756;28;20068;-68
2021/10/15 06:01:12;;;;;;;6.05;3.30;;;11.50;99.90;;;;;;5007145;28;20467;-69
2021/10/15 06:03:41;;;;;;;5.97;2.53;;;11.50;99.90;;;;;;5004347;28;20149;-67
2021/10/15 06:07:38;;;;;;;4.82;3.30;;;11.50;99.90;;;;;;5003318;28;20085;-67
2021/10/15 06:14:43;;;;;;;12.90;3.75;;;11.60;99.90;;;;;;4933880;28;20564;-68
2021/10/15 06:17:17;;;;;;;7.38;4.00;;;11.50;99.90;;;;;;5004180;28;20456;-71
2021/10/15 06:19:53;;;;;;;10.32;3.25;;;11.60;99.90;;;;;;5009998;28;20077;-68
2021/10/15 06:22:22;;;;;;;10.57;3.40;;;11.60;99.90;;;;;;5004625;28;20089;-66
2021/10/15 06:24:51;;;;;;;5.80;3.40;;;11.60;99.90;;;;;;5006063;28;20058;-67
2021/10/15 06:27:19;;;;;;;9.18;4.10;;;11.60;99.90;;;;;;5006016;28;20046;-66
2021/10/15 06:29:48;;;;;;;10.45;5.10;;;11.60;99.90;;;;;;5004533;28;20405;-70
2021/10/15 06:32:20;;;;;;;12.85;3.80;;;11.70;99.90;;;;;;5005432;28;20472;-66
2021/10/15 06:34:48;;;;;;;4.20;2.95;;;11.70;99.90;;;;;;5003160;28;20038;-65
2021/10/15 06:37:17;;;;;;;4.72;2.42;;;11.70;99.90;;;;;;5008022;28;20065;-67
2021/10/15 06:39:47;;;;;;;6.05;3.17;;;11.70;99.90;;;;;;5005580;28;20714;-68
2021/10/15 06:42:14;;;;;;;8.07;3.53;;;11.70;99.90;;;;;;5006146;28;20113;-68
2021/10/15 06:44:41;;;;;;;5.05;2.88;;;11.80;99.90;;;;;;5001344;28;20141;-71
2021/10/15 06:47:08;;;;;;;10.10;3.63;;;11.80;99.90;;;;;;5006220;28;20038;-73
2021/10/15 06:49:35;;;;;;;6.07;3.65;;;11.80;99.90;;;;;;5001833;28;20112;-69
2021/10/15 06:52:02;;;;;;;8.32;3.53;;;11.80;99.90;;;;;;5007042;28;20080;-69
2021/10/15 06:54:29;;;;;;;6.82;2.78;;;11.80;99.90;;;;;;5004003;28;20042;-67
2021/10/15 06:56:56;;;;;;;10.95;3.58;;;11.90;99.90;;;;;;5007867;28;20136;-71
2021/10/15 06:59:23;;;;;;;6.43;2.97;;;11.90;99.90;;;;;;5003430;28;20095;-72
2021/10/15 07:01:50;;;;;;;11.77;5.43;;;11.90;99.90;;;;;;5004611;28;20155;-66
2021/10/15 07:04:19;;;;;;;8.77;3.35;;;12.00;99.90;;;;;;5002907;28;20072;-66
2021/10/15 07:06:46;;;;;;;9.45;4.63;;;12.00;99.90;;;;;;5004550;28;20070;-70
2021/10/15 07:09:12;;;;;;;9.80;4.10;;;12.10;99.90;;;;;;5005233;28;20868;-65
2021/10/15 07:11:39;;;;;;;11.43;3.97;;;12.10;99.90;;;;;;5002730;28;20080;-66
2021/10/15 07:14:06;;;;;;;10.45;4.65;;;12.10;99.90;;;;;;5006062;28;20656;-68
2021/10/15 07:16:33;;;;;;;6.05;2.67;;;12.20;99.90;;;;;;5005519;28;20364;-68
2021/10/15 07:19:00;;;;;;;7.57;3.13;;;12.20;99.90;;;;;;4989429;28;20045;-76
2021/10/15 07:21:27;;;;;;;7.38;3.78;;;12.20;99.90;;;;;;5003404;28;20045;-65
2021/10/15 07:23:54;;;;;;;6.22;2.75;;;12.30;99.90;;;;;;5007484;28;20465;-68
2021/10/15 07:26:22;;;;;;;14.60;3.70;;;12.40;99.90;;;;;;5002128;28;20136;-67
2021/10/15 07:28:49;;;;;;;8.40;3.75;;;12.40;99.90;;;;;;5006923;28;21883;-67
2021/10/15 07:31:16;;;;;;;6.72;3.83;;;12.40;99.90;;;;;;5008669;28;20041;-66
2021/10/15 07:33:44;;;;;;;4.25;2.65;;;12.50;99.90;;;;;;5005333;28;20050;-66
2021/10/15 07:36:11;;;;;;;7.15;3.92;;;12.50;99.90;;;;;;5005027;28;20088;-69
2021/10/15 07:38:38;;;;;;;6.55;3.72;;;12.50;99.90;;;;;;5008120;28;20124;-66
2021/10/15 07:41:06;;;;;;;5.20;3.60;;;12.50;99.90;;;;;;5002407;28;20133;-66
2021/10/15 07:43:34;;;;;;;10.63;5.10;;;12.40;99.90;;;;;;5005271;28;20050;-70
2021/10/15 07:46:02;;;;;;;8.32;3.40;;;12.40;99.90;;;;;;5008150;28;20767;-68
2021/10/15 07:48:29;;;;;;;6.88;2.75;;;12.40;99.90;;;;;;5003755;28;20060;-70
2021/10/15 07:50:55;;;;;;;6.38;3.60;;;12.40;99.90;;;;;;5009804;28;20044;-70
2021/10/15 07:53:23;;;;;;;6.38;3.13;;;12.40;99.90;;;;;;5005421;28;20720;-70
2021/10/15 07:55:50;;;;;;;6.65;3.58;;;12.40;99.90;;;;;;5006205;28;20137;-67
2021/10/15 07:58:17;;;;;;;8.20;6.60;;;12.30;99.90;;;;;;4985325;28;20096;-66
2021/10/15 08:00:44;;;;;;;7.32;3.25;;;12.30;99.90;;;;;;5007686;28;20476;-71
2021/10/15 08:03:11;;;;;;;16.70;3.65;;;12.40;99.90;;;;;;4996471;28;20052;-66
2021/10/15 08:05:38;;;;;;;7.53;4.75;;;12.30;99.90;;;;;;4988529;28;20368;-69
2021/10/15 08:08:05;;;;;;;4.80;2.85;;;12.30;99.90;;;;;;4986546;28;20425;-67
2021/10/15 08:10:32;;;;;;;5.75;2.97;;;12.30;99.90;;;;;;4987219;28;20141;-66
2021/10/15 08:13:01;;;;;;;11.05;3.58;;;12.30;99.90;;;;;;4983156;28;20392;-69
2021/10/15 08:15:29;;;;;;;9.52;3.40;;;12.30;99.90;;;;;;4985582;28;20046;-70
2021/10/15 08:17:56;;;;;;;7.70;3.67;;;12.20;99.90;;;;;;4988433;28;20045;-66
2021/10/15 08:20:23;;;;;;;7.70;4.70;;;12.10;99.90;;;;;;4991662;28;20109;-68
2021/10/15 08:22:52;;;;;;;9.93;3.80;;;12.00;99.90;;;;;;4973580;28;20677;-66
2021/10/15 08:25:28;;;;;;;9.00;4.57;;;11.90;99.90;;;;;;4990342;28;20049;-70
2021/10/15 08:27:57;;;;;;;4.70;3.20;;;11.90;99.90;;;;;;4987724;28;20050;-66
2021/10/15 08:30:25;;;;;;;11.75;3.90;;;11.90;99.90;;;;;;4986831;28;20046;-67
2021/10/15 08:32:52;;;;;;;4.05;3.28;;;11.80;99.90;;;;;;4986159;28;20077;-71
2021/10/15 08:35:21;;;;;;;4.15;2.00;;;11.80;99.90;;;;;;4984896;28;20054;-66
2021/10/15 08:37:50;;;;;;;5.88;2.55;;;11.80;99.90;;;;;;4975939;28;20057;-72
2021/10/15 08:40:18;;;;;;;4.28;1.85;;;11.80;99.90;;;;;;4983349;28;20695;-68
2021/10/15 08:42:55;;;;;;;4.03;1.70;;;11.70;99.90;;;;;;4981784;28;20550;-75
2021/10/15 08:45:37;;;;;;;4.15;1.65;;;11.60;99.90;;;;;;4985072;28;20066;-66
2021/10/15 08:48:04;;;;;;;3.83;1.77;;;11.60;99.90;;;;;;4986711;28;20101;-73
2021/10/15 08:50:42;;;;;;;6.40;1.27;;;11.60;99.90;;;;;;4985502;28;20097;-65
2021/10/15 08:53:09;;;;;;;5.30;1.05;;;11.40;99.90;;;;;;4988076;28;20034;-73
2021/10/15 08:55:36;;;;;;;5.50;1.77;;;11.40;99.90;;;;;;4991239;28;20112;-70
2021/10/15 08:58:03;;;;;;;2.65;1.02;;;11.30;99.90;;;;;;4988570;28;20093;-70
2021/10/15 09:00:32;;;;;;;6.53;1.40;;;11.20;99.90;;;;;;4986119;28;20038;-66
2021/10/15 09:03:26;;;;;;;8.00;1.73;;;11.20;99.90;;;;;;4994698;28;20053;-65
2021/10/15 09:06:03;;;;;;;9.75;1.88;;;11.20;99.90;;;;;;5006381;28;20097;-67
2021/10/15 09:08:43;;;;;;;7.72;1.80;;;11.10;99.90;;;;;;5001703;28;20053;-69
2021/10/15 09:11:27;;;;;;;;;;;11.20;99.90;;;;;;5004115;28;20061;-69
2021/10/15 09:14:11;;;;;;;6.20;1.17;;;11.20;99.90;;;;;;5004224;28;19944;-76
2021/10/15 09:16:57;;;;;;;4.22;1.90;;;11.10;99.90;;;;;;5002891;28;20046;-67
2021/10/15 09:19:26;;;;;;;10.20;1.63;;;11.10;99.90;;;;;;5006385;28;20046;-69
2021/10/15 09:22:04;;;;;;;3.67;1.10;;;11.10;99.90;;;;;;5000298;28;20092;-69
2021/10/15 09:24:38;;;;;;;7.38;1.63;;;11.10;99.90;;;;;;4992538;28;20073;-68
2021/10/15 09:27:12;;;;;;;4.85;0.90;;;11.10;99.90;;;;;;4997099;28;20128;-70
2021/10/15 09:30:06;;;;;;;4.70;2.25;;;11.10;99.90;;;;;;5002682;28;20068;-69
2021/10/15 09:32:47;;;;;;;31.25;1.85;;;11.10;99.90;;;;;;4976983;28;20062;-67
2021/10/15 09:35:21;;;;;;;5.20;2.40;;;11.00;99.90;;;;;;5009002;28;20123;-69
2021/10/15 09:37:50;;;;;;;8.32;1.40;;;10.90;99.90;;;;;;5004958;28;20104;-70
2021/10/15 09:40:20;;;;;;;5.50;1.00;;;10.80;99.90;;;;;;5007005;28;20042;-67
2021/10/15 09:42:52;;;;;;;;;;;10.80;99.90;;;;;;5008462;28;20117;-69
2021/10/15 09:45:25;;;;;;;6.38;2.03;;;10.80;99.90;;;;;;5009454;28;19917;-66
2021/10/15 09:47:53;;;;;;;4.78;1.20;;;10.90;99.90;;;;;;4998727;28;20060;-69
2021/10/15 09:50:22;;;;;;;4.57;1.95;;;10.90;99.90;;;;;;4999139;28;20038;-66
2021/10/15 09:52:52;;;;;;;8.88;1.50;;;10.90;99.90;;;;;;5008095;28;20359;-67
2021/10/15 09:55:20;;;;;;;3.47;1.38;;;10.90;99.90;;;;;;5010061;28;20069;-70
2021/10/15 09:57:49;;;;;;;5.57;1.25;;;11.00;99.90;;;;;;5009658;28;20042;-69
2021/10/15 10:00:20;;;;;;;9.67;3.13;;;11.00;99.90;;;;;;5003722;28;20054;-66
2021/10/15 10:02:48;;;;;;;6.75;1.88;;;11.00;99.90;;;;;;5013686;28;20042;-71
2021/10/15 10:05:17;;;;;;;6.47;1.60;;;11.00;99.90;;;;;;5011372;28;20131;-66
2021/10/15 10:07:49;;;;;;;5.40;2.60;;;11.00;99.90;;;;;;5009855;28;20046;-68
2021/10/15 10:10:19;;;;;;;8.50;1.42;;;11.00;99.90;;;;;;5007570;28;20088;-66
2021/10/15 10:12:47;;;;;;;8.25;1.92;;;11.00;99.90;;;;;;5007835;28;20386;-66
2021/10/15 10:15:16;;;;;;;11.57;2.45;;;11.00;99.90;;;;;;5001996;28;20045;-71
2021/10/15 10:17:49;;;;;;;5.20;2.65;;;10.90;99.90;;;;;;5004399;28;20044;-66
2021/10/15 10:20:23;;;;;;;8.65;1.65;;;10.90;99.90;;;;;;5008554;28;20060;-66
2021/10/15 10:23:12;;;;;;;8.60;2.33;;;10.90;99.90;;;;;;5009811;28;20049;-68
2021/10/15 10:25:40;;;;;;;9.05;1.90;;;10.90;99.90;;;;;;5008536;28;20572;-68
2021/10/15 10:28:14;;;;;;;3.40;1.20;;;10.90;99.90;;;;;;5006278;28;20061;-73
2021/10/15 10:30:44;;;;;;;6.55;2.22;;;10.90;99.90;;;;;;5000749;28;20056;-76
2021/10/15 10:33:11;;;;;;;5.78;1.17;;;11.00;99.90;;;;;;5007649;28;20556;-65
2021/10/15 10:35:39;;;;;;;9.05;1.75;;;11.00;99.90;;;;;;5008123;28;20100;-69
2021/10/15 10:38:23;;;;;;;11.15;1.95;;;11.00;99.90;;;;;;5004249;28;20041;-67
2021/10/15 10:41:00;;;;;;;7.20;1.60;;;11.00;99.90;;;;;;5001688;28;20057;-69
2021/10/15 10:43:48;;;;;;;8.38;1.30;;;11.00;99.90;;;;;;5005835;28;20070;-69
2021/10/15 10:46:23;;;;;;;6.25;1.52;;;11.10;99.90;;;;;;4991680;28;20038;-66
2021/10/15 10:48:50;;;;;;;9.85;2.30;;;11.10;99.90;;;;;;5000058;28;20050;-67
2021/10/15 10:51:19;;;;;;;8.02;2.70;;;11.10;99.90;;;;;;5005017;28;20141;-87
2021/10/15 10:54:11;;;;;;;8.68;2.25;;;11.20;99.90;;;;;;5001529;28;20097;-67
2021/10/15 10:56:49;;;;;;;7.70;2.15;;;11.20;99.90;;;;;;5000826;28;20046;-68
2021/10/15 10:59:19;;;;;;;5.47;2.35;;;11.20;99.90;;;;;;5008516;28;20053;-65
2021/10/15 11:02:10;;;;;;;5.07;1.60;;;11.20;99.90;;;;;;5003729;28;20069;-83
2021/10/15 11:04:58;;;;;;;10.70;4.10;;;11.20;99.90;;;;;;5003678;28;20849;-72
2021/10/15 11:07:26;;;;;;;7.75;1.83;;;11.30;99.90;;;;;;5006894;28;20050;-66
2021/10/15 11:09:56;;;;;;;6.57;1.70;;;11.30;99.90;;;;;;5004942;28;20108;-67
2021/10/15 11:12:46;;;;;;;11.80;2.92;;;11.30;99.90;;;;;;5005960;28;20038;-68
2021/10/15 11:15:14;;;;;;;9.47;2.17;;;11.40;99.90;;;;;;5005457;28;20467;-69
2021/10/15 11:17:49;;;;;;;4.82;2.35;;;11.40;99.90;;;;;;5004652;28;20120;-71
2021/10/15 11:20:30;;;;;;;10.60;2.20;;;11.30;99.90;;;;;;5004191;28;20042;-70
2021/10/15 11:23:09;;;;;;;9.57;2.70;;;11.30;99.90;;;;;;4997627;28;20041;-66
2021/10/15 11:25:45;;;;;;;10.27;3.78;;;11.30;99.90;;;;;;4997738;28;20050;-69
2021/10/15 11:28:20;;;;;;;9.40;2.70;;;11.30;99.90;;;;;;4747485;28;10000553;-68
2021/10/15 11:30:50;;;;;;;9.05;1.23;;;11.30;99.90;;;;;;685968;28;10001995;-65
2021/10/15 11:33:19;;;;;;;10.20;3.03;;;11.30;99.90;;;;;;4996470;28;20042;-65
2021/10/15 11:35:50;;;;;;;7.45;2.45;;;11.30;99.90;;;;;;5000084;28;20046;-66
2021/10/15 11:38:25;;;;;;;8.30;1.90;;;11.40;99.90;;;;;;5005052;28;20041;-70
2021/10/15 11:40:58;;;;;;;10.10;2.55;;;11.50;99.90;;;;;;5002349;28;21334;-70
2021/10/15 11:43:34;;;;;;;3.78;1.38;;;11.50;99.90;;;;;;5007541;28;20034;-65
2021/10/15 11:46:03;;;;;;;13.98;2.15;;;11.40;99.90;;;;;;4988831;28;20096;-65
2021/10/15 11:48:40;;;;;;;9.38;2.83;;;11.30;99.90;;;;;;5001223;28;20045;-69
2021/10/15 11:51:25;;;;;;;12.65;2.72;;;11.30;99.90;;;;;;4989206;28;20383;-72
2021/10/15 11:53:58;;;;;;;12.05;2.13;;;11.40;99.90;;;;;;5006307;28;20046;-72
2021/10/15 11:56:34;;;;;;;8.68;2.00;;;11.40;99.90;;;;;;5003406;28;20149;-65
2021/10/15 11:59:06;;;;;;;8.77;1.55;;;11.40;99.90;;;;;;5008090;28;20480;-75
2021/10/15 12:01:35;;;;;;;8.82;2.30;;;11.40;99.90;;;;;;5009526;28;20073;-65
2021/10/15 12:04:08;;;;;;;9.30;2.72;;;11.40;99.90;;;;;;5005784;28;20479;-65
2021/10/15 12:06:51;;;;;;;8.38;2.30;;;11.30;99.90;;;;;;5006433;28;20046;-65
2021/10/15 12:09:21;;;;;;;4.75;1.83;;;11.30;99.90;;;;;;5003844;28;20679;-65
2021/10/15 12:12:05;;;;;;;6.53;2.10;;;11.30;99.90;;;;;;4997437;28;20092;-67
2021/10/15 12:14:34;;;;;;;2.55;1.55;;;11.20;99.90;;;;;;5006294;28;20382;-66
2021/10/15 12:17:12;;;;;;;13.00;2.75;;;11.20;99.90;;;;;;5005853;28;20045;-66
2021/10/15 12:19:40;;;;;;;13.38;1.83;;;11.20;99.90;;;;;;4996766;28;20043;-66
2021/10/15 12:22:15;;;;;;;7.47;1.20;;;11.20;99.90;;;;;;5008363;28;20038;-66
2021/10/15 12:24:47;;;;;;;11.95;1.85;;;11.30;99.90;;;;;;5003351;28;20050;-68
2021/10/15 12:27:16;;;;;;;11.23;1.88;;;11.30;99.90;;;;;;5004762;28;20431;-65
2021/10/15 12:29:53;;;;;;;7.47;1.80;;;11.30;99.90;;;;;;5004924;28;20120;-67
2021/10/15 12:32:37;;;;;;;6.03;1.67;;;11.30;99.90;;;;;;5006746;28;20111;-65
2021/10/15 12:35:21;;;;;;;4.38;1.40;;;11.40;99.90;;;;;;5009148;28;20077;-66
2021/10/15 12:37:51;;;;;;;10.02;1.88;;;11.50;99.90;;;;;;5007620;28;20050;-66
2021/10/15 12:40:31;;;;;;;;;;;11.60;99.90;;;;;;5003594;28;20382;-65
2021/10/15 12:43:05;;;;;;;7.25;1.00;;;11.50;99.90;;;;;;5004892;28;20255;-65
2021/10/15 12:45:35;;;;;;;4.15;1.38;;;11.60;99.90;;;;;;5001625;28;20064;-66
2021/10/15 12:48:08;;;;;;;;;;;11.60;99.90;;;;;;5006359;28;20430;-66
2021/10/15 12:50:38;;;;;;;4.72;1.42;;;11.70;99.90;;;;;;5002582;28;19921;-69
2021/10/15 12:53:15;;;;;;;2.00;0.70;;;11.70;99.90;;;;;;4996272;28;20049;-69
2021/10/15 12:55:53;;;;;;;7.80;2.58;;;11.60;99.90;;;;;;5010046;28;20061;-67
2021/10/15 12:58:21;;;;;;;3.25;1.15;;;11.70;99.90;;;;;;4997595;28;20050;-68
2021/10/15 13:00:52;;;;;;;3.92;0.85;;;11.70;99.90;;;;;;5010552;28;20084;-71
2021/10/15 13:03:19;;;;;;;3.95;1.30;;;11.70;99.90;;;;;;5007913;28;20112;-65
2021/10/15 13:05:48;;;;;;;4.18;0.95;;;11.80;99.90;;;;;;5007424;28;20069;-66
2021/10/15 13:08:17;;;;;;;4.13;0.90;;;11.80;99.90;;;;;;5006272;28;20047;-66
2021/10/15 13:10:45;;;;;;;4.35;1.67;;;11.70;99.90;;;;;;5011518;28;20049;-66
2021/10/15 13:13:13;;;;;;;10.05;3.53;;;11.60;99.90;;;;;;5010057;28;20069;-65
2021/10/15 13:15:40;;;;;;;7.00;1.20;;;11.50;99.90;;;;;;5008982;28;20096;-66